PWSweather.com
Personal Weather Stations
Station Observations
NANKRWX
Nanaimo, BC V9R 6W6

Nanaimo, BC V9R 6W6

Lat: 49.168, Lon: -124.036

Elevation: 637

Station Type: Davis Vantage Pro 2

http://weathercat.ca

Latest ConditionsUpdated 6:30:06 PM PST Friday, Feb 23, 2018
Currently Today's Max Today's Min Today's Average
Temperature 31.1°F-0.5°C 32.4°F0.2°C 24.3°F-4.3°C 28.6°F-1.9°C
Dew Point 28.8°F-1.8°C 30.3°F-0.9°C 21.5°F-5.8°C 26.2°F-3.2°C
Winds Calm Calm 3.0 mph NE4.8 kmh NE - 0.1 mph 0.2 kmh
Wind Gusts 1.0 mph1.6 kmh 6.0 mph9.7 kmh - -
Humidity 91% 97% 87% 90%
Pressure 30.11 in1019.6 mb 30.42 in1030.1 mb 30.11 in1019.6 mb -
Hour Temp Dew Point Humidity Winds Wind Gusts Pressure Precip Precip Rate Daily Precip Total
06:30 PM 31.1°F-0.5°C 28.8°F-1.8°C 91% Calm Calm 1.0 mph1.6 kmh 30.11 in1019.6 mb 0.00 in0.0 mm 0.00 in0.0 mm 0.20 in5.1 mm
06:20 PM 31.1°F-0.5°C 29.1°F-1.6°C 92% Calm Calm 3.0 mph4.8 kmh 30.12 in1020.0 mb 0.00 in0.0 mm 0.00 in0.0 mm 0.20 in5.1 mm
06:10 PM 31.2°F-0.4°C 29.2°F-1.6°C 92% 1.0 mph E1.6 kmh E 2.0 mph3.2 kmh 30.12 in1020.0 mb 0.00 in0.0 mm 0.00 in0.0 mm 0.20 in5.1 mm
06:00 PM 31.2°F-0.4°C 28.9°F-1.7°C 91% Calm Calm -- 30.13 in1020.3 mb 0.00 in0.0 mm 0.00 in0.0 mm 0.20 in5.1 mm
05:50 PM 31.3°F-0.4°C 29.0°F-1.7°C 91% Calm Calm 2.0 mph3.2 kmh 30.13 in1020.3 mb 0.00 in0.0 mm 0.00 in0.0 mm 0.20 in5.1 mm
05:40 PM 31.4°F-0.3°C 29.1°F-1.6°C 91% Calm Calm 2.0 mph3.2 kmh 30.13 in1020.3 mb 0.00 in0.0 mm 0.00 in0.0 mm 0.20 in5.1 mm
05:30 PM 31.4°F-0.3°C 29.1°F-1.6°C 91% Calm Calm 2.0 mph3.2 kmh 30.13 in1020.3 mb 0.00 in0.0 mm 0.00 in0.0 mm 0.20 in5.1 mm
05:20 PM 31.5°F-0.3°C 29.2°F-1.6°C 91% Calm Calm 3.0 mph4.8 kmh 30.13 in1020.3 mb 0.00 in0.0 mm 0.00 in0.0 mm 0.20 in5.1 mm
05:10 PM 31.6°F-0.2°C 29.3°F-1.5°C 91% Calm Calm 2.0 mph3.2 kmh 30.13 in1020.3 mb 0.00 in0.0 mm 0.00 in0.0 mm 0.20 in5.1 mm
05:00 PM 31.6°F-0.2°C 29.3°F-1.5°C 91% Calm Calm 1.0 mph1.6 kmh 30.13 in1020.3 mb 0.00 in0.0 mm 0.00 in0.0 mm 0.20 in5.1 mm
04:50 PM 31.7°F-0.2°C 29.4°F-1.4°C 91% Calm Calm 3.0 mph4.8 kmh 30.14 in1020.7 mb 0.00 in0.0 mm 0.00 in0.0 mm 0.20 in5.1 mm
04:40 PM 31.9°F-0.1°C 29.6°F-1.3°C 91% 1.0 mph ENE1.6 kmh ENE 2.0 mph3.2 kmh 30.14 in1020.7 mb 0.00 in0.0 mm 0.00 in0.0 mm 0.20 in5.1 mm
04:30 PM 31.9°F-0.1°C 29.6°F-1.3°C 91% 1.0 mph NE1.6 kmh NE 3.0 mph4.8 kmh 30.14 in1020.7 mb 0.00 in0.0 mm 0.00 in0.0 mm 0.20 in5.1 mm
04:20 PM 32.1°F0.1°C 29.8°F-1.2°C 91% 3.0 mph ENE4.8 kmh ENE 4.0 mph6.4 kmh 30.14 in1020.7 mb 0.00 in0.0 mm 0.00 in0.0 mm 0.20 in5.1 mm
04:10 PM 32.2°F0.1°C 29.9°F-1.2°C 91% 3.0 mph NE4.8 kmh NE 4.0 mph6.4 kmh 30.14 in1020.7 mb 0.00 in0.0 mm 0.00 in0.0 mm 0.20 in5.1 mm
04:00 PM 32.2°F0.1°C 29.9°F-1.2°C 91% Calm Calm 4.0 mph6.4 kmh 30.14 in1020.7 mb 0.00 in0.0 mm 0.00 in0.0 mm 0.20 in5.1 mm
03:50 PM 32.4°F0.2°C 30.1°F-1.1°C 91% 2.0 mph ENE3.2 kmh ENE 5.0 mph8.0 kmh 30.14 in1020.7 mb 0.00 in0.0 mm 0.00 in0.0 mm 0.20 in5.1 mm
03:40 PM 32.3°F0.2°C 30.0°F-1.1°C 91% Calm Calm 3.0 mph4.8 kmh 30.15 in1021.0 mb 0.00 in0.0 mm 0.00 in0.0 mm 0.20 in5.1 mm
03:30 PM 31.6°F-0.2°C 29.3°F-1.5°C 91% 1.0 mph NE1.6 kmh NE 3.0 mph4.8 kmh 30.14 in1020.7 mb 0.00 in0.0 mm 0.00 in0.0 mm 0.20 in5.1 mm
03:20 PM 31.2°F-0.4°C 28.9°F-1.7°C 91% Calm Calm 1.0 mph1.6 kmh 30.15 in1021.0 mb 0.00 in0.0 mm 0.00 in0.0 mm 0.20 in5.1 mm
03:10 PM 31.2°F-0.4°C 29.2°F-1.6°C 92% Calm Calm 1.0 mph1.6 kmh 30.16 in1021.3 mb 0.00 in0.0 mm 0.00 in0.0 mm 0.20 in5.1 mm
03:00 PM 31.2°F-0.4°C 29.2°F-1.6°C 92% Calm Calm 3.0 mph4.8 kmh 30.16 in1021.3 mb 0.03 in0.8 mm 0.00 in0.0 mm 0.20 in5.1 mm
02:50 PM 31.1°F-0.5°C 29.1°F-1.6°C 92% 1.0 mph NE1.6 kmh NE 4.0 mph6.4 kmh 30.16 in1021.3 mb 0.03 in0.8 mm 0.00 in0.0 mm 0.20 in5.1 mm
02:40 PM 30.8°F-0.7°C 28.8°F-1.8°C 92% Calm Calm 3.0 mph4.8 kmh 30.16 in1021.3 mb 0.04 in1.0 mm 0.00 in0.0 mm 0.20 in5.1 mm
02:30 PM 31.0°F-0.6°C 29.0°F-1.7°C 92% Calm Calm 1.0 mph1.6 kmh 30.17 in1021.7 mb 0.10 in2.5 mm 0.60 in15.2 mm 0.20 in5.1 mm
02:20 PM 31.1°F-0.5°C 29.1°F-1.6°C 92% Calm Calm 3.0 mph4.8 kmh 30.17 in1021.7 mb 0.00 in0.0 mm 0.00 in0.0 mm 0.10 in2.5 mm
02:10 PM 31.4°F-0.3°C 29.1°F-1.6°C 91% Calm Calm 3.0 mph4.8 kmh 30.17 in1021.7 mb 0.00 in0.0 mm 0.00 in0.0 mm 0.10 in2.5 mm
02:00 PM 31.4°F-0.3°C 29.1°F-1.6°C 91% Calm Calm 3.0 mph4.8 kmh 30.18 in1022.0 mb 0.00 in0.0 mm 0.00 in0.0 mm 0.10 in2.5 mm
01:50 PM 31.4°F-0.3°C 29.1°F-1.6°C 91% Calm Calm 3.0 mph4.8 kmh 30.19 in1022.4 mb 0.00 in0.0 mm 0.00 in0.0 mm 0.10 in2.5 mm
01:40 PM 31.1°F-0.5°C 29.1°F-1.6°C 92% Calm Calm 2.0 mph3.2 kmh 30.19 in1022.4 mb 0.00 in0.0 mm 0.00 in0.0 mm 0.10 in2.5 mm
01:30 PM 31.0°F-0.6°C 29.0°F-1.7°C 92% Calm Calm 1.0 mph1.6 kmh 30.20 in1022.7 mb 0.00 in0.0 mm 0.00 in0.0 mm 0.10 in2.5 mm
01:20 PM 31.3°F-0.4°C 29.3°F-1.5°C 92% Calm Calm 2.0 mph3.2 kmh 30.20 in1022.7 mb 0.00 in0.0 mm 0.00 in0.0 mm 0.10 in2.5 mm
01:10 PM 31.2°F-0.4°C 28.9°F-1.7°C 91% Calm Calm 1.0 mph1.6 kmh 30.21 in1023.0 mb 0.00 in0.0 mm 0.00 in0.0 mm 0.10 in2.5 mm
01:00 PM 31.2°F-0.4°C 28.9°F-1.7°C 91% 2.0 mph ESE3.2 kmh ESE 2.0 mph3.2 kmh 30.21 in1023.0 mb 0.00 in0.0 mm 0.00 in0.0 mm 0.10 in2.5 mm
12:50 PM 31.3°F-0.4°C 28.7°F-1.8°C 90% Calm Calm 4.0 mph6.4 kmh 30.22 in1023.4 mb 0.00 in0.0 mm 0.00 in0.0 mm 0.10 in2.5 mm
12:40 PM 31.4°F-0.3°C 28.8°F-1.8°C 90% Calm Calm 4.0 mph6.4 kmh 30.23 in1023.7 mb 0.00 in0.0 mm 0.00 in0.0 mm 0.10 in2.5 mm
12:30 PM 31.7°F-0.2°C 29.1°F-1.6°C 90% Calm Calm 2.0 mph3.2 kmh 30.24 in1024.0 mb 0.00 in0.0 mm 0.00 in0.0 mm 0.10 in2.5 mm
12:20 PM 32.1°F0.1°C 29.5°F-1.4°C 90% Calm Calm 4.0 mph6.4 kmh 30.25 in1024.4 mb 0.00 in0.0 mm 0.00 in0.0 mm 0.10 in2.5 mm
12:10 PM 31.9°F-0.1°C 29.3°F-1.5°C 90% Calm Calm 2.0 mph3.2 kmh 30.24 in1024.0 mb 0.00 in0.0 mm 0.00 in0.0 mm 0.10 in2.5 mm
12:00 PM 31.6°F-0.2°C 29.0°F-1.7°C 90% Calm Calm 2.0 mph3.2 kmh 30.25 in1024.4 mb 0.00 in0.0 mm 0.00 in0.0 mm 0.10 in2.5 mm
11:50 AM 31.4°F-0.3°C 28.8°F-1.8°C 90% Calm Calm 4.0 mph6.4 kmh 30.25 in1024.4 mb 0.00 in0.0 mm 0.00 in0.0 mm 0.10 in2.5 mm
11:40 AM 31.4°F-0.3°C 28.8°F-1.8°C 90% Calm Calm 1.0 mph1.6 kmh 30.26 in1024.7 mb 0.00 in0.0 mm 0.00 in0.0 mm 0.10 in2.5 mm
11:30 AM 31.4°F-0.3°C 28.8°F-1.8°C 90% Calm Calm 3.0 mph4.8 kmh 30.26 in1024.7 mb 0.00 in0.0 mm 0.00 in0.0 mm 0.10 in2.5 mm
11:20 AM 31.2°F-0.4°C 28.6°F-1.9°C 90% Calm Calm 5.0 mph8.0 kmh 30.27 in1025.1 mb 0.00 in0.0 mm 0.00 in0.0 mm 0.10 in2.5 mm
11:10 AM 31.2°F-0.4°C 28.9°F-1.7°C 91% Calm Calm 2.0 mph3.2 kmh 30.27 in1025.1 mb 0.00 in0.0 mm 0.00 in0.0 mm 0.10 in2.5 mm
11:00 AM 31.0°F-0.6°C 30.3°F-0.9°C 97% Calm Calm 2.0 mph3.2 kmh 30.27 in1025.1 mb 0.00 in0.0 mm 0.00 in0.0 mm 0.10 in2.5 mm
10:50 AM 30.7°F-0.7°C 28.4°F-2.0°C 91% Calm Calm 4.0 mph6.4 kmh 30.27 in1025.1 mb 0.00 in0.0 mm 0.00 in0.0 mm 0.10 in2.5 mm
10:40 AM 30.9°F-0.6°C 28.6°F-1.9°C 91% Calm Calm 6.0 mph9.7 kmh 30.28 in1025.4 mb 0.00 in0.0 mm 0.00 in0.0 mm 0.10 in2.5 mm
10:30 AM 30.9°F-0.6°C 28.9°F-1.7°C 92% Calm Calm 4.0 mph6.4 kmh 30.27 in1025.1 mb 0.00 in0.0 mm 0.00 in0.0 mm 0.10 in2.5 mm
10:20 AM 30.4°F-0.9°C 28.4°F-2.0°C 92% Calm Calm 1.0 mph1.6 kmh 30.27 in1025.1 mb 0.05 in1.3 mm 0.00 in0.0 mm 0.10 in2.5 mm
10:10 AM 30.0°F-1.1°C 28.0°F-2.2°C 92% Calm Calm -- 30.29 in1025.7 mb 0.05 in1.3 mm 0.30 in7.6 mm 0.10 in2.5 mm
10:00 AM 29.7°F-1.3°C 27.7°F-2.4°C 92% Calm Calm -- 30.31 in1026.4 mb 0.00 in0.0 mm 0.00 in0.0 mm 0.05 in1.3 mm
09:50 AM 29.4°F-1.4°C 27.4°F-2.6°C 92% Calm Calm 1.0 mph1.6 kmh 30.32 in1026.8 mb 0.00 in0.0 mm 0.00 in0.0 mm 0.05 in1.3 mm
09:40 AM 29.2°F-1.6°C 27.2°F-2.7°C 92% Calm Calm 2.0 mph3.2 kmh 30.32 in1026.8 mb 0.05 in1.3 mm 0.30 in7.6 mm 0.05 in1.3 mm
09:30 AM 29.0°F-1.7°C 26.7°F-2.9°C 91% Calm Calm 3.0 mph4.8 kmh 30.31 in1026.4 mb 0.00 in0.0 mm 0.00 in0.0 mm 0.00 in0.0 mm
09:20 AM 28.8°F-1.8°C 26.8°F-2.9°C 92% Calm Calm 3.0 mph4.8 kmh 30.31 in1026.4 mb 0.00 in0.0 mm 0.00 in0.0 mm 0.00 in0.0 mm
09:10 AM 28.4°F-2.0°C 26.4°F-3.1°C 92% 1.0 mph E1.6 kmh E 2.0 mph3.2 kmh 30.31 in1026.4 mb 0.00 in0.0 mm 0.00 in0.0 mm 0.00 in0.0 mm
09:00 AM 28.1°F-2.2°C 25.8°F-3.4°C 91% Calm Calm -- 30.31 in1026.4 mb 0.00 in0.0 mm 0.00 in0.0 mm 0.00 in0.0 mm
08:50 AM 27.9°F-2.3°C 25.6°F-3.6°C 91% Calm Calm -- 30.32 in1026.8 mb 0.00 in0.0 mm 0.00 in0.0 mm 0.00 in0.0 mm
08:40 AM 27.8°F-2.3°C 25.5°F-3.6°C 91% Calm Calm -- 30.32 in1026.8 mb 0.00 in0.0 mm 0.00 in0.0 mm 0.00 in0.0 mm
08:30 AM 27.6°F-2.4°C 25.3°F-3.7°C 91% Calm Calm 4.0 mph6.4 kmh 30.32 in1026.8 mb 0.00 in0.0 mm 0.00 in0.0 mm 0.00 in0.0 mm
08:20 AM 27.5°F-2.5°C 25.2°F-3.8°C 91% Calm Calm 2.0 mph3.2 kmh 30.33 in1027.1 mb 0.00 in0.0 mm 0.00 in0.0 mm 0.00 in0.0 mm
08:10 AM 27.4°F-2.6°C 25.1°F-3.8°C 91% Calm Calm -- 30.33 in1027.1 mb 0.00 in0.0 mm 0.00 in0.0 mm 0.00 in0.0 mm
08:00 AM 27.3°F-2.6°C 25.0°F-3.9°C 91% Calm Calm -- 30.34 in1027.4 mb 0.00 in0.0 mm 0.00 in0.0 mm 0.00 in0.0 mm
07:50 AM 27.2°F-2.7°C 24.9°F-3.9°C 91% Calm Calm -- 30.34 in1027.4 mb 0.00 in0.0 mm 0.00 in0.0 mm 0.00 in0.0 mm
07:40 AM 27.1°F-2.7°C 24.8°F-4.0°C 91% Calm Calm -- 30.34 in1027.4 mb 0.00 in0.0 mm 0.00 in0.0 mm 0.00 in0.0 mm
07:30 AM 26.9°F-2.8°C 24.6°F-4.1°C 91% Calm Calm -- 30.33 in1027.1 mb 0.00 in0.0 mm 0.00 in0.0 mm 0.00 in0.0 mm
07:20 AM 26.9°F-2.8°C 24.6°F-4.1°C 91% Calm Calm -- 30.34 in1027.4 mb 0.00 in0.0 mm 0.00 in0.0 mm 0.00 in0.0 mm
07:10 AM 26.8°F-2.9°C 24.5°F-4.2°C 91% Calm Calm -- 30.34 in1027.4 mb 0.00 in0.0 mm 0.00 in0.0 mm 0.00 in0.0 mm
07:00 AM 26.7°F-2.9°C 24.4°F-4.2°C 91% Calm Calm -- 30.34 in1027.4 mb 0.00 in0.0 mm 0.00 in0.0 mm 0.00 in0.0 mm
06:50 AM 26.5°F-3.1°C 24.2°F-4.3°C 91% Calm Calm -- 30.34 in1027.4 mb 0.00 in0.0 mm 0.00 in0.0 mm 0.00 in0.0 mm
06:40 AM 26.4°F-3.1°C 24.1°F-4.4°C 91% Calm Calm -- 30.35 in1027.8 mb 0.00 in0.0 mm 0.00 in0.0 mm 0.00 in0.0 mm
06:30 AM 26.3°F-3.2°C 24.0°F-4.4°C 91% Calm Calm -- 30.35 in1027.8 mb 0.00 in0.0 mm 0.00 in0.0 mm 0.00 in0.0 mm
06:20 AM 26.1°F-3.3°C 23.8°F-4.6°C 91% Calm Calm -- 30.35 in1027.8 mb 0.00 in0.0 mm 0.00 in0.0 mm 0.00 in0.0 mm
06:10 AM 26.1°F-3.3°C 23.8°F-4.6°C 91% Calm Calm -- 30.36 in1028.1 mb 0.00 in0.0 mm 0.00 in0.0 mm 0.00 in0.0 mm
06:00 AM 26.1°F-3.3°C 23.8°F-4.6°C 91% Calm Calm -- 30.36 in1028.1 mb 0.00 in0.0 mm 0.00 in0.0 mm 0.00 in0.0 mm
05:50 AM 26.2°F-3.2°C 23.9°F-4.5°C 91% Calm Calm -- 30.37 in1028.4 mb 0.00 in0.0 mm 0.00 in0.0 mm 0.00 in0.0 mm
05:40 AM 26.3°F-3.2°C 24.0°F-4.4°C 91% Calm Calm -- 30.37 in1028.4 mb 0.00 in0.0 mm 0.00 in0.0 mm 0.00 in0.0 mm
05:30 AM 26.2°F-3.2°C 23.9°F-4.5°C 91% Calm Calm -- 30.38 in1028.8 mb 0.00 in0.0 mm 0.00 in0.0 mm 0.00 in0.0 mm
05:20 AM 26.1°F-3.3°C 23.8°F-4.6°C 91% Calm Calm -- 30.38 in1028.8 mb 0.00 in0.0 mm 0.00 in0.0 mm 0.00 in0.0 mm
05:10 AM 26.0°F-3.3°C 23.5°F-4.7°C 90% Calm Calm -- 30.39 in1029.1 mb 0.00 in0.0 mm 0.00 in0.0 mm 0.00 in0.0 mm
05:00 AM 26.0°F-3.3°C 23.5°F-4.7°C 90% Calm Calm -- 30.39 in1029.1 mb 0.00 in0.0 mm 0.00 in0.0 mm 0.00 in0.0 mm
04:50 AM 26.0°F-3.3°C 23.5°F-4.7°C 90% Calm Calm -- 30.39 in1029.1 mb 0.00 in0.0 mm 0.00 in0.0 mm 0.00 in0.0 mm
04:40 AM 25.8°F-3.4°C 23.3°F-4.8°C 90% Calm Calm -- 30.39 in1029.1 mb 0.00 in0.0 mm 0.00 in0.0 mm 0.00 in0.0 mm
04:30 AM 25.8°F-3.4°C 23.3°F-4.8°C 90% Calm Calm -- 30.40 in1029.5 mb 0.00 in0.0 mm 0.00 in0.0 mm 0.00 in0.0 mm
04:20 AM 25.8°F-3.4°C 23.3°F-4.8°C 90% Calm Calm -- 30.39 in1029.1 mb 0.00 in0.0 mm 0.00 in0.0 mm 0.00 in0.0 mm
04:10 AM 25.6°F-3.6°C 23.1°F-4.9°C 90% Calm Calm -- 30.39 in1029.1 mb 0.00 in0.0 mm 0.00 in0.0 mm 0.00 in0.0 mm
04:00 AM 25.4°F-3.7°C 22.9°F-5.1°C 90% Calm Calm 1.0 mph1.6 kmh 30.40 in1029.5 mb 0.00 in0.0 mm 0.00 in0.0 mm 0.00 in0.0 mm
03:50 AM 25.1°F-3.8°C 22.6°F-5.2°C 90% Calm Calm -- 30.39 in1029.1 mb 0.00 in0.0 mm 0.00 in0.0 mm 0.00 in0.0 mm
03:40 AM 24.8°F-4.0°C 22.3°F-5.4°C 90% Calm Calm -- 30.40 in1029.5 mb 0.00 in0.0 mm 0.00 in0.0 mm 0.00 in0.0 mm
03:30 AM 24.7°F-4.1°C 22.2°F-5.4°C 90% Calm Calm -- 30.40 in1029.5 mb 0.00 in0.0 mm 0.00 in0.0 mm 0.00 in0.0 mm
03:20 AM 24.7°F-4.1°C 21.9°F-5.6°C 89% Calm Calm -- 30.40 in1029.5 mb 0.00 in0.0 mm 0.00 in0.0 mm 0.00 in0.0 mm
03:10 AM 24.5°F-4.2°C 21.7°F-5.7°C 89% Calm Calm -- 30.40 in1029.5 mb 0.00 in0.0 mm 0.00 in0.0 mm 0.00 in0.0 mm
03:00 AM 24.3°F-4.3°C 21.5°F-5.8°C 89% Calm Calm -- 30.40 in1029.5 mb 0.00 in0.0 mm 0.00 in0.0 mm 0.00 in0.0 mm
02:50 AM 24.7°F-4.1°C 21.9°F-5.6°C 89% Calm Calm -- 30.40 in1029.5 mb 0.00 in0.0 mm 0.00 in0.0 mm 0.00 in0.0 mm
02:40 AM 24.8°F-4.0°C 22.0°F-5.6°C 89% Calm Calm -- 30.40 in1029.5 mb 0.00 in0.0 mm 0.00 in0.0 mm 0.00 in0.0 mm
02:30 AM 24.7°F-4.1°C 21.7°F-5.7°C 88% Calm Calm -- 30.41 in1029.8 mb 0.00 in0.0 mm 0.00 in0.0 mm 0.00 in0.0 mm
02:20 AM 24.7°F-4.1°C 21.7°F-5.7°C 88% Calm Calm -- 30.40 in1029.5 mb 0.00 in0.0 mm 0.00 in0.0 mm 0.00 in0.0 mm
02:10 AM 24.9°F-3.9°C 21.9°F-5.6°C 88% Calm Calm -- 30.41 in1029.8 mb 0.00 in0.0 mm 0.00 in0.0 mm 0.00 in0.0 mm
02:00 AM 25.6°F-3.6°C 22.6°F-5.2°C 88% Calm Calm -- 30.41 in1029.8 mb 0.00 in0.0 mm 0.00 in0.0 mm 0.00 in0.0 mm
01:50 AM 25.9°F-3.4°C 22.8°F-5.1°C 88% Calm Calm -- 30.41 in1029.8 mb 0.00 in0.0 mm 0.00 in0.0 mm 0.00 in0.0 mm
01:40 AM 25.9°F-3.4°C 22.6°F-5.2°C 87% Calm Calm -- 30.41 in1029.8 mb 0.00 in0.0 mm 0.00 in0.0 mm 0.00 in0.0 mm
01:30 AM 25.8°F-3.4°C 22.5°F-5.3°C 87% Calm Calm -- 30.41 in1029.8 mb 0.00 in0.0 mm 0.00 in0.0 mm 0.00 in0.0 mm
01:20 AM 25.8°F-3.4°C 22.7°F-5.2°C 88% Calm Calm -- 30.41 in1029.8 mb 0.00 in0.0 mm 0.00 in0.0 mm 0.00 in0.0 mm
01:10 AM 25.8°F-3.4°C 22.5°F-5.3°C 87% Calm Calm -- 30.42 in1030.1 mb 0.00 in0.0 mm 0.00 in0.0 mm 0.00 in0.0 mm
01:00 AM 25.8°F-3.4°C 22.5°F-5.3°C 87% Calm Calm -- 30.41 in1029.8 mb 0.00 in0.0 mm 0.00 in0.0 mm 0.00 in0.0 mm
12:50 AM 25.8°F-3.4°C 22.5°F-5.3°C 87% Calm Calm -- 30.41 in1029.8 mb 0.00 in0.0 mm 0.00 in0.0 mm 0.00 in0.0 mm
12:40 AM 25.9°F-3.4°C 22.6°F-5.2°C 87% Calm Calm -- 30.42 in1030.1 mb 0.00 in0.0 mm 0.00 in0.0 mm 0.00 in0.0 mm
12:30 AM 25.9°F-3.4°C 22.6°F-5.2°C 87% Calm Calm -- 30.42 in1030.1 mb 0.00 in0.0 mm 0.00 in0.0 mm 0.00 in0.0 mm
12:20 AM 25.9°F-3.4°C 22.6°F-5.2°C 87% Calm Calm -- 30.42 in1030.1 mb 0.00 in0.0 mm 0.00 in0.0 mm 0.00 in0.0 mm
12:10 AM 26.0°F-3.3°C 22.7°F-5.2°C 87% Calm Calm -- 30.42 in1030.1 mb 0.00 in0.0 mm 0.00 in0.0 mm 0.00 in0.0 mm
12:00 AM 26.0°F-3.3°C 22.9°F-5.1°C 88% Calm Calm -- 30.42 in1030.1 mb 0.00 in0.0 mm 0.00 in0.0 mm 0.00 in0.0 mm